Time;durP1;ratioP1;P1;durP2;ratioP2;P2;SDS_P1;SDS_P2;PMS_P1;PMS_P2;Temp;Humidity;BMP_temperature;BMP_pressure;BME280_temperature;BME280_humidity;BME280_pressure;Samples;Min_cycle;Max_cycle;Signal;HPM_P1;HPM_P2
2021/12/12 00:02:18;;;;;;;14.13;12.20;;;;;;;7.62;100.00;100262.59;1693077;84;21053;-74
2021/12/12 00:04:39;;;;;;;14.38;12.47;;;;;;;7.62;100.00;100257.76;1663415;84;21003;-73
2021/12/12 00:07:09;;;;;;;15.15;12.40;;;;;;;7.66;100.00;100259.78;1682579;82;21001;-72
2021/12/12 00:09:41;;;;;;;15.75;12.45;;;;;;;7.67;100.00;100269.98;1723157;82;21583;-75
2021/12/12 00:12:12;;;;;;;16.55;14.40;;;;;;;7.63;100.00;100266.06;1672523;84;20932;-71
2021/12/12 00:14:39;;;;;;;13.22;11.93;;;;;;;7.59;100.00;100261.67;1702809;84;21086;-72
2021/12/12 00:17:07;;;;;;;15.18;11.88;;;;;;;7.60;100.00;100258.48;1701557;84;21075;-79
2021/12/12 00:19:35;;;;;;;12.65;11.35;;;;;;;7.59;100.00;100269.70;1674671;83;21157;-73
2021/12/12 00:22:05;;;;;;;13.98;12.35;;;;;;;7.58;100.00;100262.70;1680263;82;21643;-72
2021/12/12 00:24:31;;;;;;;16.97;11.45;;;;;;;7.62;100.00;100272.48;1663483;82;21142;-69
2021/12/12 00:26:58;;;;;;;13.53;11.57;;;;;;;7.65;100.00;100270.70;1689342;83;20960;-70
2021/12/12 00:29:25;;;;;;;14.23;12.18;;;;;;;7.70;100.00;100265.00;1691098;84;21623;-70
2021/12/12 00:31:57;;;;;;;15.98;11.93;;;;;;;7.69;100.00;100250.48;1652499;85;21847;-69
2021/12/12 00:34:26;;;;;;;12.40;10.32;;;;;;;7.73;100.00;100259.71;1688150;84;20983;-71
2021/12/12 00:36:52;;;;;;;13.60;11.57;;;;;;;7.71;100.00;100271.17;1675715;84;21034;-72
2021/12/12 00:39:23;;;;;;;15.08;12.70;;;;;;;7.66;100.00;100273.68;1697239;84;21588;-71
2021/12/12 00:41:57;;;;;;;13.85;12.45;;;;;;;7.61;100.00;100271.66;1673544;83;21079;-72
2021/12/12 00:44:23;;;;;;;12.40;11.10;;;;;;;7.59;100.00;100280.92;1690355;83;21121;-70
2021/12/12 00:46:50;;;;;;;14.33;11.25;;;;;;;7.60;100.00;100276.70;1670551;84;21564;-70
2021/12/12 00:49:16;;;;;;;12.93;11.63;;;;;;;7.63;100.00;100278.94;1697859;84;20979;-70
2021/12/12 00:51:44;;;;;;;15.25;13.45;;;;;;;7.73;100.00;100282.47;1698131;84;21536;-70
2021/12/12 00:54:13;;;;;;;13.45;11.90;;;;;;;7.75;100.00;100289.78;1695041;84;21059;-71
2021/12/12 00:56:39;;;;;;;14.05;11.38;;;;;;;7.69;100.00;100290.12;1686803;84;21140;-70
2021/12/12 00:59:07;;;;;;;10.95;9.65;;;;;;;7.64;100.00;100293.97;1655278;85;21345;-70
2021/12/12 01:01:38;;;;;;;16.67;12.68;;;;;;;7.61;100.00;100289.05;1690268;84;21026;-69
2021/12/12 01:04:10;;;;;;;15.15;11.70;;;;;;;7.60;100.00;100287.41;1696437;84;21020;-70
2021/12/12 01:06:36;;;;;;;15.05;10.05;;;;;;;7.63;100.00;100288.81;1698294;84;21566;-72
2021/12/12 01:09:07;;;;;;;12.47;10.72;;;;;;;7.63;100.00;100287.48;1691339;84;20963;-71
2021/12/12 01:11:41;;;;;;;12.93;11.45;;;;;;;7.62;100.00;100284.01;1662668;85;21059;-71
2021/12/12 01:14:11;;;;;;;15.58;13.72;;;;;;;7.64;100.00;100287.78;1670296;85;21006;-70
2021/12/12 01:16:48;;;;;;;17.02;13.20;;;;;;;7.65;100.00;100280.06;1676270;84;21047;-71
2021/12/12 01:19:28;;;;;;;16.05;14.35;;;;;;;7.66;100.00;100293.25;1695779;83;21096;-70
2021/12/12 01:22:00;;;;;;;14.60;12.90;;;;;;;7.63;100.00;100293.66;1691765;84;21076;-70
2021/12/12 01:24:34;;;;;;;18.17;14.70;;;;;;;7.62;100.00;100301.92;1688519;83;21580;-70
2021/12/12 01:27:01;;;;;;;20.15;16.60;;;;;;;7.57;100.00;100301.23;1660435;85;20991;-73
2021/12/12 01:29:27;;;;;;;23.12;19.07;;;;;;;7.53;100.00;100304.56;1643443;86;21703;-71
2021/12/12 01:31:54;;;;;;;24.07;17.12;;;;;;;7.49;100.00;100313.52;1664303;84;21590;-72
2021/12/12 01:34:25;;;;;;;18.00;15.18;;;;;;;7.51;100.00;100304.77;1662821;85;22152;-71
2021/12/12 01:37:34;;;;;;;19.23;13.60;;;;;;;7.54;100.00;100308.34;1668692;83;20992;-72
2021/12/12 01:39:43;;;;;;;17.52;13.05;;;;;;;7.62;100.00;100309.95;1685023;84;21115;-72
2021/12/12 01:42:20;;;;;;;17.75;14.07;;;;;;;7.57;100.00;100307.92;1670195;84;21031;-72
2021/12/12 01:44:56;;;;;;;14.03;12.53;;;;;;;7.54;100.00;100311.53;1668474;84;21063;-72
2021/12/12 01:47:43;;;;;;;18.52;14.70;;;;;;;7.48;100.00;100313.75;1689879;83;21258;-73
2021/12/12 01:50:14;;;;;;;19.67;12.78;;;;;;;7.47;100.00;100316.11;1688395;84;21020;-72
2021/12/12 01:52:41;;;;;;;22.22;13.58;;;;;;;7.43;100.00;100321.08;1673848;83;20996;-73
2021/12/12 01:55:21;;;;;;;18.30;13.30;;;;;;;7.43;100.00;100312.50;1667979;83;22473;-74
2021/12/12 01:57:45;;;;;;;17.05;11.97;;;;;;;7.48;100.00;100309.73;1658588;84;21567;-72
2021/12/12 02:00:18;;;;;;;21.68;14.63;;;;;;;7.49;100.00;100311.34;1679879;84;21457;-73
2021/12/12 02:02:44;;;;;;;;;;;;;;;7.53;100.00;100317.94;1665274;84;21072;-72
2021/12/12 02:05:14;;;;;;;27.75;21.82;;;;;;;7.51;100.00;100309.29;1666926;85;20205;-73
2021/12/12 02:07:46;;;;;;;31.77;25.10;;;;;;;7.48;100.00;100317.77;1667092;85;21126;-73
2021/12/12 02:10:21;;;;;;;30.35;20.80;;;;;;;7.47;100.00;100325.48;1676341;83;21043;-73
2021/12/12 02:12:48;;;;;;;24.85;18.30;;;;;;;7.47;100.00;100325.48;1666413;84;21066;-73
2021/12/12 02:15:15;;;;;;;30.57;20.95;;;;;;;7.52;100.00;100327.00;1669652;85;20983;-73
2021/12/12 02:17:44;;;;;;;27.30;19.32;;;;;;;7.58;100.00;100322.13;1663809;85;21644;-73
2021/12/12 02:20:23;;;;;;;26.82;19.50;;;;;;;7.59;100.00;100321.89;1676985;84;21023;-72
2021/12/12 02:36:22;;;;;;;25.02;16.17;;;;;;;7.67;100.00;100329.70;1678327;83;21035;-72
2021/12/12 02:38:51;;;;;;;19.02;13.55;;;;;;;7.71;100.00;100340.27;1668778;84;21019;-71
2021/12/12 02:41:20;;;;;;;22.05;14.78;;;;;;;7.71;100.00;100338.11;1695448;84;21588;-71
2021/12/12 02:43:56;;;;;;;16.35;12.93;;;;;;;7.65;100.00;100337.11;1653770;85;20959;-72
2021/12/12 02:46:32;;;;;;;18.42;13.38;;;;;;;7.65;100.00;100337.11;1710203;83;20990;-72
2021/12/12 02:49:06;;;;;;;20.12;13.75;;;;;;;7.60;100.00;100341.46;1678638;83;21102;-71
2021/12/12 02:51:28;;;;;;;22.22;15.65;;;;;;;7.59;100.00;100343.31;1672783;83;21859;-71
2021/12/12 02:53:56;;;;;;;24.92;14.18;;;;;;;7.59;100.00;100338.47;1659546;85;21567;-72
2021/12/12 02:56:36;;;;;;;27.10;17.80;;;;;;;7.64;100.00;100346.17;1686459;84;20932;-72
2021/12/12 02:59:10;;;;;;;26.02;15.93;;;;;;;7.65;100.00;100338.96;1679124;84;21093;-71
2021/12/12 03:01:40;;;;;;;;;;;;;;;7.64;100.00;100344.00;1693808;84;21567;-71
2021/12/12 03:04:06;;;;;;;24.55;15.08;;;;;;;7.65;100.00;100343.80;1680242;84;21160;-72
2021/12/12 03:06:35;;;;;;;24.63;16.67;;;;;;;7.63;100.00;100349.05;1690194;83;21555;-71
2021/12/12 03:09:19;;;;;;;24.87;15.95;;;;;;;7.62;100.00;100350.94;1684635;84;21075;-72
2021/12/12 03:11:48;;;;;;;30.52;18.37;;;;;;;7.60;100.00;100347.64;1700286;83;21497;-72
2021/12/12 03:14:14;;;;;;;29.35;19.05;;;;;;;7.62;100.00;100352.79;1681857;81;20998;-72
2021/12/12 03:16:41;;;;;;;32.80;19.15;;;;;;;7.69;100.00;100352.22;1689500;83;21718;-71
2021/12/12 03:19:10;;;;;;;33.58;19.17;;;;;;;7.72;100.00;100348.59;1685430;84;21520;-71
2021/12/12 03:21:42;;;;;;;31.97;19.48;;;;;;;7.67;100.00;100343.59;1695100;84;21074;-72
2021/12/12 03:24:15;;;;;;;25.52;17.50;;;;;;;7.66;100.00;100355.33;1664631;85;21532;-73
2021/12/12 03:26:43;;;;;;;23.75;16.80;;;;;;;7.63;100.00;100350.39;1722467;82;21548;-72
2021/12/12 03:29:09;;;;;;;21.60;17.23;;;;;;;7.51;100.00;100348.92;1708069;82;21115;-71
2021/12/12 03:31:39;;;;;;;21.35;16.62;;;;;;;7.43;100.00;100361.22;1707198;82;21054;-72
2021/12/12 03:34:08;;;;;;;22.67;15.15;;;;;;;7.34;100.00;100365.97;1697080;84;22089;-71
2021/12/12 03:36:34;;;;;;;25.08;17.27;;;;;;;7.30;100.00;100368.77;1648205;85;21095;-72
2021/12/12 03:39:09;;;;;;;23.38;17.23;;;;;;;7.28;100.00;100370.86;1690927;84;21058;-72
2021/12/12 03:41:36;;;;;;;20.75;16.50;;;;;;;7.31;100.00;100373.61;1668520;84;21260;-72
2021/12/12 03:44:07;;;;;;;24.77;15.18;;;;;;;7.27;100.00;100359.84;1674723;84;21563;-73
2021/12/12 03:46:35;;;;;;;25.48;17.77;;;;;;;7.26;100.00;100366.73;1674769;85;21027;-72
2021/12/12 03:49:01;;;;;;;23.92;17.98;;;;;;;7.15;100.00;100366.86;1645994;85;21035;-71
2021/12/12 03:51:29;;;;;;;23.50;17.82;;;;;;;7.09;100.00;100377.09;1700318;82;20974;-71
2021/12/12 03:53:56;;;;;;;22.42;15.88;;;;;;;7.06;100.00;100371.31;1679931;84;21552;-72
2021/12/12 03:56:22;;;;;;;20.05;13.62;;;;;;;7.09;100.00;100381.10;1701585;84;21047;-72
2021/12/12 03:58:50;;;;;;;26.45;15.20;;;;;;;7.09;100.00;100377.60;1688524;84;21528;-72
2021/12/12 04:01:40;;;;;;;25.65;18.70;;;;;;;7.03;100.00;100375.77;1644016;87;21117;-71
2021/12/12 04:04:13;;;;;;;21.42;16.65;;;;;;;7.01;100.00;100376.78;1700250;82;21070;-74
2021/12/12 04:06:41;;;;;;;23.85;18.27;;;;;;;6.97;100.00;100384.92;1702977;84;21108;-72
2021/12/12 04:09:08;;;;;;;22.77;14.58;;;;;;;6.97;100.00;100379.58;1696101;84;21031;-72
2021/12/12 04:11:42;;;;;;;22.13;15.85;;;;;;;7.00;100.00;100387.17;1699131;82;20930;-71
2021/12/12 04:14:08;;;;;;;20.45;16.35;;;;;;;6.99;100.00;100382.87;1647340;84;21051;-71
2021/12/12 04:16:37;;;;;;;19.60;15.35;;;;;;;6.97;100.00;100393.45;1702565;83;21019;-71
2021/12/12 04:19:04;;;;;;;19.62;15.43;;;;;;;6.95;100.00;100395.54;1658522;84;21571;-71
2021/12/12 04:21:31;;;;;;;20.82;14.58;;;;;;;6.96;100.00;100399.32;1670601;83;21544;-71
2021/12/12 04:23:57;;;;;;;17.57;12.37;;;;;;;7.04;100.00;100404.98;1679119;84;21106;-72
2021/12/12 04:26:33;;;;;;;22.80;16.80;;;;;;;7.09;100.00;100411.86;1668676;83;21016;-71
2021/12/12 04:29:13;;;;;;;22.93;15.72;;;;;;;7.05;100.00;100414.62;1675232;83;21078;-71
2021/12/12 04:31:42;;;;;;;23.30;16.75;;;;;;;7.00;100.00;100409.11;1650728;86;21057;-71
2021/12/12 04:34:09;;;;;;;25.85;17.05;;;;;;;6.94;100.00;100414.77;1688178;84;21086;-72
2021/12/12 04:36:41;;;;;;;27.55;18.62;;;;;;;6.92;100.00;100414.14;1675539;84;21007;-71
2021/12/12 04:39:17;;;;;;;29.77;20.50;;;;;;;6.91;100.00;100409.81;1663444;84;21317;-70
2021/12/12 04:41:45;;;;;;;31.17;20.72;;;;;;;6.85;100.00;100409.34;1679697;83;21028;-72
2021/12/12 04:44:11;;;;;;;31.75;20.80;;;;;;;6.84;100.00;100407.69;1646802;83;21047;-71
2021/12/12 04:49:55;;;;;;;28.38;17.48;;;;;;;6.92;100.00;100406.13;1644516;86;21080;-70
2021/12/12 04:52:27;;;;;;;28.83;19.75;;;;;;;6.96;100.00;100403.33;1661480;85;21083;-72
2021/12/12 04:55:13;;;;;;;28.60;19.67;;;;;;;6.89;100.00;100404.39;1667224;83;20979;-71
2021/12/12 04:57:48;;;;;;;32.20;20.60;;;;;;;6.85;100.00;100395.14;1660065;85;21106;-71
2021/12/12 05:00:21;;;;;;;33.02;20.48;;;;;;;6.80;100.00;100398.44;1688003;84;21055;-69
2021/12/12 05:03:18;;;;;;;23.52;17.37;;;;;;;6.76;100.00;100390.50;1697122;84;21027;-71
2021/12/12 05:06:28;;;;;;;26.37;16.67;;;;;;;6.63;100.00;100396.38;1668022;84;21540;-71
2021/12/12 05:09:12;;;;;;;27.87;19.10;;;;;;;6.54;100.00;100398.45;1639646;84;21042;-71
2021/12/12 05:11:56;;;;;;;;;;;;;;;6.49;100.00;100396.91;1646281;85;21033;-71
2021/12/12 05:14:25;;;;;;;;;;;;;;;6.50;100.00;100393.21;1627218;85;20464;-71
2021/12/12 05:17:09;;;;;;;25.68;16.77;;;;;;;6.52;100.00;100397.85;1675533;84;20161;-71
2021/12/12 05:19:37;;;;;;;30.37;17.52;;;;;;;6.43;100.00;100394.54;1693162;83;21051;-70
2021/12/12 05:22:10;;;;;;;24.18;15.30;;;;;;;6.39;100.00;100408.52;1655077;84;21595;-71
2021/12/12 05:24:38;;;;;;;21.02;14.33;;;;;;;6.33;100.00;100406.69;1660880;85;21096;-72
2021/12/12 05:27:12;;;;;;;20.48;14.75;;;;;;;6.26;100.00;100413.34;1661840;83;21011;-71
2021/12/12 05:29:44;;;;;;;19.60;14.38;;;;;;;6.21;100.00;100416.31;1656040;85;21075;-71
2021/12/12 05:32:10;;;;;;;18.73;13.48;;;;;;;6.19;100.00;100407.70;1688529;85;21036;-72
2021/12/12 05:34:38;;;;;;;15.95;11.22;;;;;;;6.19;100.00;100411.70;1663358;84;21067;-73
2021/12/12 05:37:05;;;;;;;24.72;12.37;;;;;;;6.23;100.00;100404.92;1694242;84;21191;-72
2021/12/12 05:39:32;;;;;;;17.00;12.88;;;;;;;6.19;100.00;100403.16;1688206;85;21000;-71
2021/12/12 05:41:58;;;;;;;18.23;12.93;;;;;;;6.19;100.00;100414.38;1655769;84;21084;-71
2021/12/12 05:44:25;;;;;;;17.20;11.53;;;;;;;6.24;100.00;100423.91;1663042;84;21078;-72
2021/12/12 05:46:59;;;;;;;23.65;15.48;;;;;;;6.16;100.00;100422.77;1671048;84;21038;-72
2021/12/12 05:49:25;;;;;;;20.85;14.38;;;;;;;6.11;100.00;100428.73;1669900;84;21173;-71
2021/12/12 05:51:52;;;;;;;24.12;16.12;;;;;;;6.09;100.00;100426.79;1687461;83;21011;-72
2021/12/12 05:54:18;;;;;;;21.42;15.30;;;;;;;6.11;100.00;100432.22;1680273;83;21047;-72
2021/12/12 05:56:46;;;;;;;22.10;15.20;;;;;;;6.11;100.00;100421.55;1673829;82;20967;-71
2021/12/12 05:59:13;;;;;;;19.05;14.55;;;;;;;6.10;100.00;100432.41;1673338;84;21087;-73
2021/12/12 06:01:41;;;;;;;22.80;13.35;;;;;;;5.96;100.00;100428.90;1691252;83;21089;-69
2021/12/12 06:04:07;;;;;;;21.35;13.83;;;;;;;5.92;100.00;100441.52;1670966;84;21512;-71
2021/12/12 06:06:38;;;;;;;18.60;13.30;;;;;;;5.85;100.00;100444.13;1688452;84;21031;-71
2021/12/12 06:09:07;;;;;;;19.65;12.88;;;;;;;5.84;100.00;100453.69;1679689;83;21075;-72
2021/12/12 06:11:35;;;;;;;18.15;12.75;;;;;;;5.85;100.00;100456.67;1700426;83;21023;-73
2021/12/12 06:14:02;;;;;;;17.05;12.30;;;;;;;5.90;100.00;100456.39;1681264;85;21153;-73
2021/12/12 06:16:30;;;;;;;19.62;12.98;;;;;;;5.93;100.00;100464.53;1656865;83;21548;-72
2021/12/12 06:19:08;;;;;;;21.05;14.85;;;;;;;5.94;100.00;100459.50;1711209;82;21121;-73
2021/12/12 06:21:35;;;;;;;19.20;14.50;;;;;;;5.95;100.00;100468.63;1689392;83;21536;-77
2021/12/12 06:24:01;;;;;;;22.05;12.78;;;;;;;5.95;100.00;100474.48;1676523;84;21044;-75
2021/12/12 06:26:28;;;;;;;22.02;15.03;;;;;;;5.95;100.00;100479.31;1681486;84;21817;-74
2021/12/12 06:28:54;;;;;;;18.60;12.07;;;;;;;5.93;100.00;100490.72;1674489;83;21071;-74
2021/12/12 06:31:21;;;;;;;20.12;14.23;;;;;;;5.92;100.00;100506.92;1677440;84;21534;-75
2021/12/12 06:33:47;;;;;;;20.35;12.95;;;;;;;5.87;100.00;100505.36;1701916;83;21094;-74
2021/12/12 06:36:15;;;;;;;19.95;12.25;;;;;;;5.77;100.00;100501.70;1687176;84;21038;-74
2021/12/12 06:38:45;;;;;;;21.70;13.05;;;;;;;5.73;100.00;100495.63;1687346;83;21538;-72
2021/12/12 06:41:12;;;;;;;17.80;12.33;;;;;;;5.63;100.00;100501.33;1693017;83;21051;-73
2021/12/12 06:43:38;;;;;;;17.57;12.20;;;;;;;5.61;100.00;100494.84;1701305;83;20995;-78
2021/12/12 06:46:05;;;;;;;17.48;12.78;;;;;;;5.59;100.00;100494.73;1711143;83;21012;-73
2021/12/12 06:48:32;;;;;;;20.62;12.60;;;;;;;5.52;100.00;100495.20;1721493;83;21159;-72
2021/12/12 06:51:01;;;;;;;17.82;11.43;;;;;;;5.51;100.00;100497.58;1699290;83;21543;-72
2021/12/12 06:53:29;;;;;;;23.25;12.90;;;;;;;5.50;100.00;100501.27;1695373;83;21075;-73
2021/12/12 06:55:57;;;;;;;19.92;12.45;;;;;;;5.48;100.00;100499.29;1694961;84;20951;-73
2021/12/12 06:58:26;;;;;;;20.52;13.20;;;;;;;5.42;100.00;100502.77;1694848;84;21051;-72
2021/12/12 07:01:01;;;;;;;19.65;11.63;;;;;;;5.41;100.00;100505.94;1690612;83;21020;-72
2021/12/12 07:03:29;;;;;;;27.25;14.47;;;;;;;5.46;100.00;100524.02;1693255;83;21090;-76
2021/12/12 07:05:56;;;;;;;22.00;15.95;;;;;;;5.45;100.00;100523.70;1700995;83;20960;-71
2021/12/12 07:08:22;;;;;;;20.40;13.25;;;;;;;5.38;100.00;100521.48;1712611;83;21067;-74
2021/12/12 07:10:49;;;;;;;24.10;14.63;;;;;;;5.37;100.00;100521.20;1667812;84;21034;-75
2021/12/12 07:13:16;;;;;;;26.68;16.40;;;;;;;5.29;100.00;100526.16;1667957;84;21122;-75
2021/12/12 07:15:47;;;;;;;23.27;12.75;;;;;;;5.19;100.00;100531.01;1667243;86;21156;-74
2021/12/12 07:18:18;;;;;;;26.05;15.90;;;;;;;5.18;100.00;100528.84;1632721;87;21014;-74
2021/12/12 07:20:48;;;;;;;30.08;16.50;;;;;;;5.18;100.00;100526.72;1632516;87;22056;-76
2021/12/12 07:23:15;;;;;;;30.45;18.87;;;;;;;5.19;100.00;100528.34;1632484;87;21121;-74
2021/12/12 07:25:42;;;;;;;23.10;16.27;;;;;;;5.14;100.00;100524.09;1639632;87;21108;-77
2021/12/12 07:28:10;;;;;;;25.95;16.27;;;;;;;5.12;100.00;100524.31;1622671;87;21080;-76
2021/12/12 07:30:36;;;;;;;29.85;18.37;;;;;;;5.11;100.00;100520.50;1641541;87;21578;-75
2021/12/12 07:33:05;;;;;;;29.80;17.32;;;;;;;5.09;100.00;100527.34;1656026;84;21052;-74
2021/12/12 07:35:37;;;;;;;28.27;17.62;;;;;;;5.07;100.00;100521.91;1695221;84;21004;-74
2021/12/12 07:38:10;;;;;;;27.70;17.27;;;;;;;5.02;100.00;100519.83;1695441;84;21042;-75
2021/12/12 07:40:37;;;;;;;26.90;17.48;;;;;;;5.02;100.00;100527.82;1695422;84;21138;-75
2021/12/12 07:43:05;;;;;;;32.73;19.98;;;;;;;5.02;100.00;100528.33;1677034;84;21047;-75
2021/12/12 07:45:33;;;;;;;28.17;17.05;;;;;;;5.03;100.00;100530.81;1695647;84;21057;-75
2021/12/12 07:48:00;;;;;;;30.08;18.80;;;;;;;5.03;100.00;100526.81;1653867;84;21048;-74
2021/12/12 07:50:27;;;;;;;30.23;17.95;;;;;;;5.04;100.00;100525.77;1677302;84;21094;-76
2021/12/12 07:52:54;;;;;;;29.37;18.73;;;;;;;5.03;100.00;100528.65;1676282;84;21142;-75
2021/12/12 07:55:22;;;;;;;36.00;20.97;;;;;;;5.04;100.00;100529.77;1622186;87;21010;-75
2021/12/12 07:57:48;;;;;;;32.30;20.10;;;;;;;4.98;100.00;100547.06;1641528;87;21017;-75
2021/12/12 08:00:22;;;;;;;33.08;19.62;;;;;;;4.99;100.00;100547.39;1650328;86;21038;-74
2021/12/12 08:02:49;;;;;;;27.45;17.12;;;;;;;4.98;100.00;100549.23;1667602;86;21127;-75
2021/12/12 08:05:16;;;;;;;30.97;18.65;;;;;;;4.98;100.00;100558.55;1672743;85;21094;-75
2021/12/12 08:07:43;;;;;;;30.80;18.98;;;;;;;4.93;100.00;100557.47;1667285;86;21603;-75
2021/12/12 08:10:13;;;;;;;32.35;20.82;;;;;;;4.88;100.00;100558.05;1641806;87;21002;-76
2021/12/12 08:12:41;;;;;;;30.72;19.75;;;;;;;4.92;100.00;100560.64;1641401;87;20973;-76
2021/12/12 08:15:10;;;;;;;31.80;19.48;;;;;;;4.95;100.00;100559.42;1615378;87;21593;-75
2021/12/12 08:17:39;;;;;;;29.57;17.50;;;;;;;4.95;100.00;100551.42;1648553;86;21811;-75
2021/12/12 08:20:10;;;;;;;35.15;20.50;;;;;;;4.88;100.00;100556.72;1667379;86;20979;-74
2021/12/12 08:22:37;;;;;;;32.28;20.12;;;;;;;4.79;100.00;100554.70;1667339;86;20987;-77
2021/12/12 08:25:06;;;;;;;35.50;21.17;;;;;;;4.77;100.00;100552.72;1674239;85;21123;-74
2021/12/12 08:27:33;;;;;;;31.73;19.48;;;;;;;4.74;100.00;100552.28;1693457;84;21046;-76
2021/12/12 08:30:00;;;;;;;29.82;18.00;;;;;;;4.74;100.00;100557.61;1697726;84;21155;-77
2021/12/12 08:32:26;;;;;;;26.73;17.80;;;;;;;4.75;100.00;100557.41;1672071;84;20955;-76
2021/12/12 08:34:53;;;;;;;32.58;20.95;;;;;;;4.76;100.00;100567.55;1618675;87;21523;-76
2021/12/12 08:37:19;;;;;;;27.10;16.85;;;;;;;4.72;100.00;100563.13;1637393;87;21062;-76
2021/12/12 08:39:45;;;;;;;22.77;14.90;;;;;;;4.66;100.00;100552.39;1618435;87;21054;-76
2021/12/12 08:42:12;;;;;;;19.62;14.03;;;;;;;4.53;100.00;100556.27;1637329;87;21295;-74
2021/12/12 08:44:39;;;;;;;14.90;11.57;;;;;;;4.53;100.00;100559.75;1637224;87;21130;-76
2021/12/12 08:47:07;;;;;;;25.17;14.68;;;;;;;4.53;100.00;100553.09;1637625;87;21063;-76
2021/12/12 08:49:37;;;;;;;24.40;15.32;;;;;;;4.48;100.00;100557.34;1637330;87;21105;-77
2021/12/12 08:52:11;;;;;;;23.98;17.17;;;;;;;4.41;100.00;100559.95;1615037;87;21108;-77
2021/12/12 08:54:40;;;;;;;22.40;15.23;;;;;;;4.35;100.00;100554.03;1669702;85;21139;-75
2021/12/12 08:57:13;;;;;;;19.42;15.50;;;;;;;4.34;100.00;100561.20;1642627;85;21559;-75
2021/12/12 08:59:43;;;;;;;23.62;16.93;;;;;;;4.32;100.00;100563.72;1670110;85;21019;-75
2021/12/12 09:02:12;;;;;;;23.25;14.40;;;;;;;4.26;100.00;100563.16;1670378;85;21067;-76
2021/12/12 09:05:01;;;;;;;21.77;14.00;;;;;;;4.18;100.00;100562.73;1670242;86;21078;-76
2021/12/12 09:07:38;;;;;;;24.87;13.90;;;;;;;4.19;100.00;100556.91;1669991;85;21559;-76
2021/12/12 09:10:22;;;;;;;20.15;15.10;;;;;;;4.18;100.00;100562.73;1673551;84;21062;-77
2021/12/12 09:13:02;;;;;;;19.17;13.25;;;;;;;4.17;100.00;100554.96;1698618;84;21080;-76
2021/12/12 09:15:46;;;;;;;21.68;15.30;;;;;;;4.15;100.00;100562.30;1678333;84;21524;-75
2021/12/12 09:18:19;;;;;;;20.15;14.58;;;;;;;4.17;100.00;100566.94;1698200;84;21086;-76
2021/12/12 09:21:02;;;;;;;17.55;13.72;;;;;;;4.14;100.00;100559.31;1679485;84;21162;-76
2021/12/12 09:23:42;;;;;;;18.55;13.58;;;;;;;4.08;100.00;100551.56;1679900;82;21081;-80
2021/12/12 09:26:21;;;;;;;18.90;13.05;;;;;;;4.03;100.00;100553.95;1673422;84;21533;-77
2021/12/12 09:28:55;;;;;;;18.37;13.75;;;;;;;4.01;100.00;100557.83;1669962;84;21106;-76
2021/12/12 09:31:33;;;;;;;20.48;13.95;;;;;;;4.01;100.00;100552.50;1669579;84;21059;-77
2021/12/12 09:34:14;;;;;;;20.72;16.45;;;;;;;4.02;100.00;100556.32;1670294;84;21042;-76
2021/12/12 09:36:57;;;;;;;20.48;14.25;;;;;;;4.04;100.00;100559.60;1697799;84;21002;-77
2021/12/12 09:39:33;;;;;;;21.40;14.60;;;;;;;4.06;100.00;100554.10;1670109;86;21528;-76
2021/12/12 09:42:09;;;;;;;25.20;15.60;;;;;;;4.03;100.00;100547.30;1643122;85;21011;-77
2021/12/12 09:45:19;;;;;;;18.35;13.48;;;;;;;4.02;100.00;100548.84;1645242;86;20924;-80
2021/12/12 09:51:14;;;;;;;15.25;11.25;;;;;;;3.92;100.00;100549.95;1671473;84;20987;-79
2021/12/12 09:54:34;;;;;;;19.40;11.63;;;;;;;3.84;100.00;100552.70;1673761;85;20964;-78
2021/12/12 09:57:22;;;;;;;19.73;11.48;;;;;;;3.74;100.00;100552.68;1645079;86;21094;-79
2021/12/12 10:00:22;;;;;;;12.20;9.35;;;;;;;3.71;100.00;100542.39;1629101;86;21038;-78
2021/12/12 10:03:18;;;;;;;17.50;12.73;;;;;;;3.72;100.00;100552.03;1670107;85;21097;-76
2021/12/12 10:06:13;;;;;;;13.72;10.95;;;;;;;3.68;100.00;100548.92;1669578;86;21007;-77
2021/12/12 10:09:21;;;;;;;9.48;8.20;;;;;;;3.71;100.00;100549.04;1670119;86;21079;-78
2021/12/12 10:12:07;;;;;;;12.47;9.28;;;;;;;3.71;100.00;100549.04;1670088;86;21512;-78
2021/12/12 10:15:00;;;;;;;12.20;8.98;;;;;;;3.72;100.00;100544.88;1670010;85;21523;-78
2021/12/12 10:17:43;;;;;;;12.18;9.20;;;;;;;3.66;100.00;100545.60;1687582;84;21118;-77
2021/12/12 10:20:15;;;;;;;13.00;9.58;;;;;;;3.66;100.00;100545.60;1692262;84;21138;-78
2021/12/12 10:23:16;;;;;;;11.22;8.38;;;;;;;3.66;100.00;100557.58;1646157;84;21074;-76
2021/12/12 10:26:06;;;;;;;9.43;7.75;;;;;;;3.67;100.00;100550.42;1668883;84;21043;-79
2021/12/12 10:28:53;;;;;;;12.33;8.53;;;;;;;3.68;100.00;100560.89;1632821;87;21050;-77
2021/12/12 10:31:29;;;;;;;11.22;8.23;;;;;;;3.67;100.00;100559.73;1662610;86;21087;-75
2021/12/12 10:34:08;;;;;;;13.18;9.80;;;;;;;3.67;100.00;100559.73;1661559;86;21036;-79
2021/12/12 10:37:05;;;;;;;10.35;8.80;;;;;;;3.60;100.00;100563.62;1615232;87;21070;-78
2021/12/12 10:39:47;;;;;;;13.10;9.60;;;;;;;3.44;100.00;100557.17;1615706;87;21745;-80
2021/12/12 10:42:33;;;;;;;12.85;11.38;;;;;;;3.45;100.00;100558.30;1632363;87;21111;-77
2021/12/12 10:45:08;;;;;;;14.28;9.35;;;;;;;3.45;100.00;100558.30;1638662;86;21884;-77
2021/12/12 10:47:46;;;;;;;15.78;10.25;;;;;;;3.46;100.00;100551.14;1667469;86;21598;-76
2021/12/12 10:50:41;;;;;;;14.58;11.00;;;;;;;3.51;100.00;100555.41;1667618;86;21077;-78
2021/12/12 10:53:29;;;;;;;13.72;10.23;;;;;;;3.50;100.00;100553.78;1615387;87;21121;-81
2021/12/12 10:56:30;;;;;;;12.75;10.38;;;;;;;3.55;100.00;100550.05;1662487;85;21008;-80
2021/12/12 10:59:00;;;;;;;16.15;11.43;;;;;;;3.59;100.00;100543.38;1637391;86;21513;-77
2021/12/12 11:01:34;;;;;;;12.78;9.10;;;;;;;3.56;100.00;100538.91;1615620;87;21006;-79
2021/12/12 11:04:11;;;;;;;11.20;9.20;;;;;;;3.44;100.00;100536.72;1680585;84;21050;-77
2021/12/12 11:07:08;;;;;;;13.98;9.03;;;;;;;3.44;100.00;100536.72;1695817;84;21543;-78
2021/12/12 11:09:45;;;;;;;11.18;8.78;;;;;;;3.46;100.00;100536.02;1695637;84;21120;-78
2021/12/12 11:12:24;;;;;;;13.13;9.80;;;;;;;3.48;100.00;100532.69;1695514;84;22198;-76
2021/12/12 11:15:13;;;;;;;13.53;9.80;;;;;;;3.53;100.00;100532.63;1695686;84;21039;-77
2021/12/12 11:17:45;;;;;;;17.65;9.10;;;;;;;3.55;100.00;100539.41;1623754;84;21050;-77
2021/12/12 11:20:22;;;;;;;16.52;9.33;;;;;;;3.61;100.00;100533.86;1695495;84;21059;-77
2021/12/12 11:22:57;;;;;;;10.65;8.28;;;;;;;3.65;100.00;100531.97;1669229;84;21579;-77
2021/12/12 11:25:33;;;;;;;11.78;7.60;;;;;;;3.59;100.00;100526.09;1677904;83;21104;-77
2021/12/12 11:28:13;;;;;;;9.25;7.97;;;;;;;3.54;100.00;100523.65;1672443;84;20920;-77
2021/12/12 11:31:00;;;;;;;9.90;7.62;;;;;;;3.54;100.00;100515.17;1696780;84;21023;-77
2021/12/12 11:33:30;;;;;;;12.05;9.78;;;;;;;3.53;100.00;100515.34;1701733;84;21051;-78
2021/12/12 11:35:57;;;;;;;12.37;9.75;;;;;;;3.49;100.00;100520.22;1703089;84;21106;-77
2021/12/12 11:38:35;;;;;;;13.53;10.38;;;;;;;3.57;100.00;100518.78;1672875;84;21130;-78
2021/12/12 11:41:20;;;;;;;15.63;9.83;;;;;;;3.57;100.00;100518.78;1702933;84;21532;-78
2021/12/12 11:44:15;;;;;;;11.83;9.05;;;;;;;3.56;100.00;100505.16;1654788;85;21130;-80
2021/12/12 11:47:21;;;;;;;12.23;9.20;;;;;;;3.60;100.00;100506.43;1674701;85;20963;-77
2021/12/12 11:50:17;;;;;;;9.98;8.43;;;;;;;3.64;100.00;100505.08;1674706;85;21118;-77
2021/12/12 11:53:02;;;;;;;17.92;12.82;;;;;;;3.68;100.00;100501.03;1594598;87;21018;-76
2021/12/12 11:55:43;;;;;;;19.35;12.03;;;;;;;3.69;100.00;100492.05;1669719;86;21654;-78
2021/12/12 11:58:34;;;;;;;16.57;11.63;;;;;;;3.70;100.00;100499.00;1674724;85;21094;-77
2021/12/12 12:01:08;;;;;;;17.10;10.90;;;;;;;3.67;100.00;100494.56;1645751;85;21101;-76